• Join FlightAware (Why Join?)
  • Login
  • US Flag 
08:49AM EDT


 

Airport Tracker/Info


-or-


 

Live Flight TrackerFlight Track Log ✈ UAL5872 ✈ 23-Apr-2013 ✈ KPIT - KORD

Flight Track Log - Related Links

Times and Time Zones

All times are in EDT time to prevent confusion due to time zone crossing. See the UAL5872 flight status page for this flight to view local times or setup timezone preferences in your user account.

Time Position Orientation Groundspeed Altitude Reporting Facility
EDT Latitude Longitude Course Direction KTS MPH feet Rate Location/Type
08:39AM 40.5503 -80.2797 279° West 269 310 5,900  Level Cleveland Center
08:40AM 40.5653 -80.3672 283° West 263 303 7,900 2,100 Climbing Cleveland Center
08:41AM 40.5800 -80.4547 283° West 263 303 10,100 1,920 Climbing Cleveland Center
08:42AM 40.5967 -80.5558 282° West 263 303 11,800 1,560 Climbing Cleveland Center
08:43AM 40.6186 -80.8596 285° West  Level FlightAware Approximate
08:43AM 40.6133 -80.6706 281° West 307 353 13,300  Level Cleveland Center
08:44AM 40.6417 -80.9668 288° West  Level FlightAware Approximate
08:44AM 40.6361 -80.7911 284° West 313 360 15,100  Level Cleveland Center
08:45AM 40.6595 -81.0756 279° West  Level FlightAware Approximate
08:45AM 40.6567 -80.9089 283° West 318 366 16,400  Level Cleveland Center
08:46AM 40.6769 -81.0294 283° West 323 372 17,900 1,500 Climbing Cleveland Center
08:47AM 40.6953 -81.1500 281° West 338 389 19,500 1,680 Climbing Cleveland Center
08:48AM 40.7133 -81.2678 281° West 332 382 21,300 1,380 Climbing Cleveland Center
08:49AM 40.7314 -81.3858 281° West 337 388 22,300 900 Climbing Cleveland Center
08:50AM 40.7533 -81.5122 283° West 342 394 23,200 900 Climbing Cleveland Center
08:51AM 40.7772 -81.6414 284° West 353 406 24,100 780 Climbing Cleveland Center
08:52AM 40.7989 -81.7597 284° West 359 413 24,800 3,900 Climbing Cleveland Center
08:53AM 40.8247 -81.8919 285° West 364 419 32,000 900 Climbing Cleveland Center
08:54AM 40.8481 -82.0242 283° West 369 425 26,600 -2,280 Descending Cleveland Center
08:55AM 40.8714 -82.1564 283° West 374 430 27,500 900 Climbing Cleveland Center
08:56AM 40.8944 -82.2861 283° West 374 430 28,400 900 Climbing Cleveland Center
08:57AM 40.9214 -82.4269 284° West 369 425 29,300 1,080 Climbing Cleveland Center
08:58AM 40.9422 -82.5567 282° West 364 419 30,600 1,260 Climbing Cleveland Center
08:59AM 40.9631 -82.6756 283° West 348 400 31,900 660 Climbing Cleveland Center
09:00AM 40.9856 -82.8056 283° West 348 400 32,000  Climbing Cleveland Center
09:01AM 41.0081 -82.9331 283° West 358 412 32,000 -600 Level Cleveland Center
09:02AM 41.0306 -83.0578 283° West 358 412 30,900 -540 Descending Cleveland Center
09:03AM 41.0489 -83.1714 282° West 358 412 31,000  Climbing Cleveland Center
09:04AM 41.0731 -83.2933 285° West 353 406 31,000  Level Cleveland Center
09:05AM 41.0928 -83.4211 282° West 353 406 31,000  Level Cleveland Center
09:06AM 41.1125 -83.5569 281° West 353 406 31,000 -180 Level Cleveland Center
09:07AM 41.1339 -83.6847 283° West 353 406 30,700 -600 Descending Cleveland Center
09:08AM 41.1556 -83.8128 283° West 353 406 29,800 -900 Descending Cleveland Center
09:09AM 41.1772 -83.9269 284° West 358 412 28,900 -600 Descending Cleveland Center
09:11AM 41.2239 -84.2250 282° West 378 435 28,000 -300 Descending Chicago Center
09:12AM 41.2269 -84.3636 272° West 375 432 28,000  Level Chicago Center
09:14AM 41.2306 -84.5028 272° West 377 434 28,000  Level Chicago Center
09:15AM 41.2353 -84.6394 273° West 372 428 28,000  Level Chicago Center
09:16AM 41.2392 -84.7783 272° West 376 433 28,000 -60 Level Chicago Center
09:17AM 41.2433 -84.9142 272° West 372 428 27,900 -600 Descending Chicago Center
09:18AM 41.2486 -85.0378 273° West 341 392 26,800 -1,080 Descending Chicago Center
09:19AM 41.2533 -85.1647 273° West 339 390 25,700 -900 Descending Chicago Center
09:20AM 41.2592 -85.3283 273° West 363 418 25,000 -360 Descending Chicago Center
09:21AM 41.2636 -85.4614 273° West 361 415 25,000  Level Chicago Center
09:22AM 41.2686 -85.5956 273° West 361 415 25,000  Level Chicago Center
09:23AM 41.2728 -85.7294 272° West 361 415 25,000 -300 Level Chicago Center
09:24AM 41.2775 -85.8619 273° West 362 417 24,400 -1,080 Descending Chicago Center
09:25AM 41.2817 -85.9947 272° West 359 413 22,800 -1,500 Descending Chicago Center
09:26AM 41.3061 -86.1269 284° West 371 427 21,300 -1,560 Descending Chicago Center
09:27AM 41.3403 -86.2619 289° West 383 441 19,700 -1,680 Descending Chicago Center
09:28AM 41.3786 -86.4197 288° West 375 432 17,900 -1,560 Descending Chicago Center
09:29AM 41.4103 -86.5481 288° West 367 422 16,500 -1,500 Descending Chicago Center
09:30AM 41.4417 -86.6700 289° West 353 406 14,900 -1,500 Descending Chicago Center
09:31AM 41.4700 -86.7847 288° West 344 396 13,500 -900 Descending Chicago Center
09:32AM 41.5053 -86.9286 288° West 341 392 13,100 -480 Descending Chicago Center
09:33AM 41.5344 -87.0458 288° West 336 387 12,600 -540 Descending Chicago Center
09:34AM 41.5633 -87.1653 288° West 338 389 12,000 -840 Descending Chicago Center
09:34AM 41.5833 -87.2167 298° West 338 389 11,500 -840 Descending Chicago TRACON
09:35AM 41.6167 -87.3000 298° West 340 391 11,000 -300 Descending Chicago TRACON
09:36AM 41.6622 -87.3731 310° West 336 387 11,000  Level Chicago Center
09:37AM 41.7347 -87.4914 309° West 346 398 11,000 -60 Level Chicago Center
09:38AM 41.7944 -87.5894 309° West 343 395 10,900 -660 Descending Chicago Center
09:39AM 41.8439 -87.6697 310° West 287 330 9,700 -1,440 Descending Chicago Center
09:40AM 41.9156 -87.6964 345° North 299 344 8,000 -840 Descending Chicago Center
09:41AM 41.9967 -87.6933 North 294 338 8,000 -180 Level Chicago Center
09:42AM 42.0717 -87.6517 22° Northeast 299 344 7,700 -1,200 Descending Chicago Center
09:43AM 42.1481 -87.6653 352° North 262 302 5,600 -1,500 Descending Chicago Center
09:44AM 42.1497 -87.7339 272° West 228 262 4,600 -1,080 Descending Chicago Center
09:45AM 42.1167 -87.7667 216° Southwest 199 229 3,600 -1,140 Descending Chicago TRACON
09:46AM 42.0667 -87.8167 217° Southwest 190 219 2,500 -960 Descending Chicago TRACON
09:47AM 42.0333 -87.8500 217° Southwest 129 148 1,700 -780 Descending Chicago TRACON
09:48AM 42.0000 -87.8833 217° Southwest 132 152 900 -780 Descending Chicago TRACON